METAR Data
IDs: Format: Raw Decoded Include TAF

Data at: 1504 UTC 16 Feb 2019

METAR for:KHCR (Heber City Muni, UT, US)
Text:KHCR 161455Z AUTO 05004KT 3SM -SN BKN014 BKN024 OVC060 M05/M07 A2976 RMK AO2
Temperature: -5.0°C ( 23°F)
Dewpoint: -7.0°C ( 19°F) [RH = 86%]
Pressure (altimeter):29.76 inches Hg (1007.9 mb)
Winds:from the NE (50 degrees) at 5 MPH (4 knots; 2.1 m/s)
Visibility: 3 sm ( 5 km)
Ceiling:1400 feet AGL
Clouds: broken clouds at 1400 feet AGL, broken clouds at 2400 feet AGL, overcast cloud deck at 6000 feet AGL
Weather:-SN (light snow)
QC Flag:automated observation with no human augmentation